createdAt,value
2018-11-27T00:00:03.291Z,18.10
2018-11-27T00:02:34.977Z,15.80
2018-11-27T00:05:06.669Z,17.03
2018-11-27T00:07:54.691Z,16.93
2018-11-27T00:10:26.318Z,17.43
2018-11-27T00:12:57.352Z,16.07
2018-11-27T00:15:30.504Z,17.13
2018-11-27T00:18:02.158Z,17.23
2018-11-27T00:20:33.631Z,17.23
2018-11-27T00:23:05.162Z,16.77
2018-11-27T00:25:36.594Z,17.80
2018-11-27T00:28:07.963Z,17.50
2018-11-27T00:30:38.937Z,17.67
2018-11-27T00:33:10.832Z,17.87
2018-11-27T00:35:42.573Z,18.17
2018-11-27T00:38:13.521Z,17.37
2018-11-27T00:40:45.180Z,17.33
2018-11-27T00:43:16.690Z,16.20
2018-11-27T00:45:48.535Z,17.00
2018-11-27T00:48:20.333Z,16.90
2018-11-27T00:50:51.266Z,16.67
2018-11-27T00:53:22.265Z,17.57
2018-11-27T00:55:54.376Z,16.70
2018-11-27T00:58:25.817Z,15.90
2018-11-27T01:00:56.974Z,16.20
2018-11-27T01:03:29.256Z,16.43
2018-11-27T01:06:01.313Z,17.20
2018-11-27T01:08:33.071Z,16.33
2018-11-27T01:11:03.926Z,17.43
2018-11-27T01:13:35.840Z,17.13
2018-11-27T01:16:07.262Z,15.30
2018-11-27T01:18:38.971Z,15.93
2018-11-27T01:21:10.518Z,16.33
2018-11-27T01:23:41.206Z,16.30
2018-11-27T01:26:12.005Z,16.23
2018-11-27T01:28:43.175Z,15.07
2018-11-27T01:31:16.087Z,16.37
2018-11-27T01:33:47.621Z,15.43
2018-11-27T01:36:19.118Z,15.27
2018-11-27T01:38:50.149Z,14.87
2018-11-27T01:41:20.962Z,15.43
2018-11-27T01:43:51.844Z,16.17
2018-11-27T01:46:23.165Z,15.70
2018-11-27T01:48:54.516Z,15.83
2018-11-27T01:51:25.398Z,15.77
2018-11-27T01:53:56.335Z,15.77
2018-11-27T01:56:27.866Z,16.30
2018-11-27T01:58:59.432Z,15.30
2018-11-27T02:01:32.432Z,15.33
2018-11-27T02:04:05.056Z,15.93
2018-11-27T02:06:35.821Z,15.37
2018-11-27T02:09:09.650Z,16.40
2018-11-27T02:11:40.552Z,15.53
2018-11-27T02:14:11.644Z,15.73
2018-11-27T02:16:42.559Z,14.47
2018-11-27T02:19:13.659Z,16.37
2018-11-27T02:21:45.042Z,16.00
2018-11-27T02:24:16.079Z,14.93
2018-11-27T02:26:47.266Z,14.50
2018-11-27T02:29:18.166Z,14.93
2018-11-27T02:31:50.495Z,14.97
2018-11-27T02:34:21.760Z,15.27
2018-11-27T02:36:53.303Z,15.00
2018-11-27T02:39:24.759Z,15.53
2018-11-27T02:41:56.975Z,15.13
2018-11-27T02:44:28.242Z,15.23
2018-11-27T02:46:59.347Z,14.57
2018-11-27T02:49:30.012Z,14.93
2018-11-27T02:52:00.849Z,15.57
2018-11-27T02:54:32.761Z,14.77
2018-11-27T02:57:04.062Z,15.23
2018-11-27T02:59:36.039Z,14.13
2018-11-27T03:02:07.051Z,14.67
2018-11-27T03:04:38.000Z,14.93
2018-11-27T03:07:09.043Z,16.07
2018-11-27T03:09:39.965Z,14.63
2018-11-27T03:12:10.827Z,14.60
2018-11-27T03:14:42.482Z,16.13
2018-11-27T03:17:13.887Z,15.73
2018-11-27T03:19:46.594Z,15.20
2018-11-27T03:22:18.468Z,15.33
2018-11-27T03:24:49.489Z,16.03
2018-11-27T03:27:21.066Z,15.00
2018-11-27T03:29:52.288Z,14.93
2018-11-27T03:32:24.106Z,15.13
2018-11-27T03:34:54.860Z,16.13
2018-11-27T03:37:26.261Z,15.30
2018-11-27T03:39:57.780Z,15.73
2018-11-27T03:42:28.953Z,15.37
2018-11-27T03:45:00.008Z,15.93
2018-11-27T03:47:30.988Z,15.50
2018-11-27T03:50:02.238Z,16.73
2018-11-27T03:52:33.488Z,16.50
2018-11-27T03:55:08.515Z,16.63
2018-11-27T03:57:41.101Z,16.97
2018-11-27T04:00:16.957Z,16.53
2018-11-27T04:02:50.174Z,16.33
2018-11-27T04:05:21.582Z,16.87
2018-11-27T04:07:54.143Z,16.73
2018-11-27T04:10:25.576Z,16.63
2018-11-27T04:12:56.451Z,16.63
2018-11-27T04:15:27.499Z,16.83
2018-11-27T04:17:58.816Z,17.13
2018-11-27T04:20:32.321Z,16.80
2018-11-27T04:23:02.354Z,17.87
2018-11-27T04:25:33.824Z,16.50
2018-11-27T04:28:04.934Z,16.40
2018-11-27T04:30:36.210Z,16.27
2018-11-27T04:33:08.193Z,16.00
2018-11-27T04:35:40.398Z,17.67
2018-11-27T04:38:11.874Z,16.97
2018-11-27T04:40:42.795Z,16.13
2018-11-27T04:43:14.322Z,17.83
2018-11-27T04:45:46.189Z,17.03
2018-11-27T04:48:17.431Z,18.30
2018-11-27T04:50:48.611Z,17.10
2018-11-27T04:53:20.344Z,17.57
2018-11-27T04:55:52.067Z,17.33
2018-11-27T04:58:23.975Z,18.33
2018-11-27T05:00:55.583Z,17.93
2018-11-27T05:03:27.369Z,16.83
2018-11-27T05:06:00.557Z,17.90
2018-11-27T05:08:31.906Z,17.27
2018-11-27T05:11:03.670Z,18.47
2018-11-27T05:13:35.372Z,17.20
2018-11-27T05:16:07.683Z,18.17
2018-11-27T05:18:38.990Z,18.13
2018-11-27T05:21:12.008Z,18.20
2018-11-27T05:23:44.360Z,18.37
2018-11-27T05:26:15.300Z,19.47
2018-11-27T05:28:46.584Z,18.83
2018-11-27T05:31:17.928Z,19.13
2018-11-27T05:33:49.601Z,20.13
2018-11-27T05:36:21.413Z,19.13
2018-11-27T05:38:52.697Z,18.77
2018-11-27T05:41:23.667Z,18.97
2018-11-27T05:43:54.538Z,20.77
2018-11-27T05:46:27.637Z,20.37
2018-11-27T05:48:58.528Z,20.63
2018-11-27T05:51:29.428Z,20.27
2018-11-27T05:54:01.500Z,19.90
2018-11-27T05:56:33.125Z,21.00
2018-11-27T05:59:04.577Z,19.23
2018-11-27T06:01:35.949Z,20.73
2018-11-27T06:04:07.135Z,20.00
2018-11-27T06:06:38.774Z,20.73
2018-11-27T06:09:11.190Z,21.30
2018-11-27T06:11:43.074Z,22.20
2018-11-27T06:14:15.377Z,22.03
2018-11-27T06:16:47.060Z,20.43
2018-11-27T06:19:18.813Z,20.80
2018-11-27T06:21:50.156Z,21.10
2018-11-27T06:24:22.126Z,21.53
2018-11-27T06:26:53.375Z,22.80
2018-11-27T06:29:24.693Z,21.17
2018-11-27T06:31:55.926Z,21.77
2018-11-27T06:34:28.939Z,22.90
2018-11-27T06:37:00.820Z,22.07
2018-11-27T06:39:32.068Z,22.13
2018-11-27T06:42:04.907Z,21.83
2018-11-27T06:44:36.605Z,23.30
2018-11-27T06:47:08.460Z,21.87
2018-11-27T06:49:55.415Z,22.43
2018-11-27T06:52:51.269Z,21.63
2018-11-27T06:55:28.491Z,21.80
2018-11-27T06:58:00.180Z,21.47
2018-11-27T07:00:31.075Z,20.60
2018-11-27T07:03:02.088Z,22.07
2018-11-27T07:05:33.750Z,21.47
2018-11-27T07:08:06.358Z,21.50
2018-11-27T07:10:37.472Z,21.37
2018-11-27T07:13:12.428Z,20.30
2018-11-27T07:15:44.364Z,20.97
2018-11-27T07:18:16.531Z,20.10
2018-11-27T07:20:48.118Z,20.03
2018-11-27T07:23:19.613Z,21.60
2018-11-27T07:25:50.642Z,20.33
2018-11-27T07:28:20.899Z,20.17
2018-11-27T07:30:54.218Z,20.20
2018-11-27T07:33:27.365Z,19.47
2018-11-27T07:35:58.791Z,19.07
2018-11-27T07:38:31.852Z,19.20
2018-11-27T07:41:03.523Z,20.40
2018-11-27T07:43:36.515Z,19.50
2018-11-27T07:46:08.183Z,19.17
2018-11-27T07:48:40.284Z,19.00
2018-11-27T07:51:11.593Z,18.63
2018-11-27T07:53:44.232Z,19.47
2018-11-27T07:56:16.408Z,18.77
2018-11-27T07:58:48.211Z,19.53
2018-11-27T08:01:21.931Z,19.20
2018-11-27T08:03:53.784Z,18.37
2018-11-27T08:06:24.952Z,18.37
2018-11-27T08:08:57.529Z,17.73
2018-11-27T08:11:28.800Z,18.90
2018-11-27T08:14:01.050Z,18.77
2018-11-27T08:16:32.243Z,19.37
2018-11-27T08:19:04.254Z,18.00
2018-11-27T08:21:36.337Z,19.20
2018-11-27T08:24:09.512Z,18.67
2018-11-27T08:26:40.823Z,19.10
2018-11-27T08:29:12.828Z,18.50
2018-11-27T08:31:46.202Z,18.73
2018-11-27T08:34:17.757Z,18.27
2018-11-27T08:36:50.738Z,18.10
2018-11-27T08:39:20.583Z,19.33
2018-11-27T08:41:51.110Z,18.93
2018-11-27T08:44:22.748Z,18.50
2018-11-27T08:46:53.481Z,19.23
2018-11-27T08:49:24.943Z,18.63
2018-11-27T08:51:57.936Z,18.50
2018-11-27T08:54:29.215Z,18.13
2018-11-27T08:57:01.394Z,19.10
2018-11-27T08:59:34.132Z,17.70
2018-11-27T09:02:06.327Z,16.97
2018-11-27T09:04:38.805Z,18.03
2018-11-27T09:07:11.337Z,17.90
2018-11-27T09:09:43.128Z,17.93
2018-11-27T09:12:15.269Z,17.23
2018-11-27T09:14:47.439Z,15.97
2018-11-27T09:17:19.506Z,16.17
2018-11-27T09:19:52.697Z,17.90
2018-11-27T09:22:24.541Z,18.07
2018-11-27T09:24:57.136Z,16.50
2018-11-27T09:27:30.417Z,16.77
2018-11-27T09:30:01.836Z,16.07
2018-11-27T09:32:33.533Z,15.40
2018-11-27T09:35:06.684Z,16.00
2018-11-27T09:37:37.982Z,15.20
2018-11-27T09:40:13.779Z,15.90
2018-11-27T09:42:46.721Z,14.43
2018-11-27T09:45:22.316Z,14.47
2018-11-27T09:47:54.724Z,16.10
2018-11-27T09:50:27.467Z,15.50
2018-11-27T09:52:59.712Z,14.80
2018-11-27T09:55:32.579Z,16.00
2018-11-27T09:58:04.972Z,15.27
2018-11-27T10:00:36.450Z,15.67
2018-11-27T10:03:11.509Z,13.93
2018-11-27T10:05:43.547Z,15.17
2018-11-27T10:08:15.121Z,15.03
2018-11-27T10:10:48.266Z,14.50
2018-11-27T10:13:18.974Z,16.23
2018-11-27T10:15:50.327Z,15.97
2018-11-27T10:18:22.810Z,14.70
2018-11-27T10:20:55.909Z,14.73
2018-11-27T10:23:29.855Z,15.60
2018-11-27T10:26:02.471Z,15.83
2018-11-27T10:28:35.474Z,15.13
2018-11-27T10:31:09.146Z,14.87
2018-11-27T10:33:40.600Z,15.03
2018-11-27T10:36:12.966Z,14.87
2018-11-27T10:38:44.410Z,14.77
2018-11-27T10:41:17.527Z,14.90
2018-11-27T10:43:50.636Z,15.60
2018-11-27T10:46:23.506Z,15.53
2018-11-27T10:48:55.859Z,15.80
2018-11-27T10:51:27.860Z,15.77
2018-11-27T10:54:01.668Z,15.13
2018-11-27T10:56:33.684Z,14.37
2018-11-27T10:59:05.984Z,14.77
2018-11-27T11:01:42.630Z,16.03
2018-11-27T11:04:14.642Z,15.73
2018-11-27T11:06:46.792Z,16.50
2018-11-27T11:09:20.678Z,15.53
2018-11-27T11:11:52.295Z,16.37
2018-11-27T11:14:24.330Z,15.47
2018-11-27T11:16:56.022Z,15.87
2018-11-27T11:19:27.824Z,15.67
2018-11-27T11:22:00.372Z,16.20
2018-11-27T11:24:32.250Z,15.63
2018-11-27T11:27:04.961Z,14.80
2018-11-27T11:29:37.592Z,15.00
2018-11-27T11:32:09.689Z,15.33
2018-11-27T11:34:41.698Z,15.63
2018-11-27T11:37:14.128Z,15.93
2018-11-27T11:39:45.475Z,15.07
2018-11-27T11:42:16.718Z,16.50
2018-11-27T11:44:49.923Z,16.13
2018-11-27T11:47:21.646Z,14.97
2018-11-27T11:49:53.223Z,16.00
2018-11-27T11:52:23.934Z,14.50
2018-11-27T11:54:55.304Z,15.37
2018-11-27T11:57:27.070Z,16.40
2018-11-27T11:59:59.541Z,15.60
2018-11-27T12:02:33.939Z,16.50
2018-11-27T12:05:01.624Z,15.33
2018-11-27T12:07:34.251Z,15.47
2018-11-27T12:10:05.696Z,16.07
2018-11-27T12:12:38.051Z,16.10
2018-11-27T12:15:11.951Z,16.00
2018-11-27T12:17:43.665Z,15.77
2018-11-27T12:20:16.252Z,16.33
2018-11-27T12:22:50.684Z,15.80
2018-11-27T12:25:24.599Z,15.43
2018-11-27T12:27:57.716Z,15.43
2018-11-27T12:30:30.508Z,16.53
2018-11-27T12:33:04.245Z,16.37
2018-11-27T12:35:36.128Z,16.43
2018-11-27T12:38:07.376Z,15.60
2018-11-27T12:40:40.944Z,15.30
2018-11-27T12:43:12.221Z,17.23
2018-11-27T12:45:43.758Z,16.40
2018-11-27T12:48:15.617Z,16.87
2018-11-27T12:50:48.318Z,15.37
2018-11-27T12:53:19.574Z,17.23
2018-11-27T12:55:52.623Z,16.50
2018-11-27T12:58:23.492Z,16.97
2018-11-27T13:00:54.906Z,18.47
2018-11-27T13:03:25.555Z,16.83
2018-11-27T13:05:57.386Z,17.50
2018-11-27T13:08:30.798Z,16.90
2018-11-27T13:11:03.986Z,18.40
2018-11-27T13:13:36.463Z,18.10
2018-11-27T13:16:09.384Z,16.80
2018-11-27T13:18:40.856Z,16.53
2018-11-27T13:21:11.671Z,16.43
2018-11-27T13:23:43.742Z,17.10
2018-11-27T13:26:14.471Z,16.70
2018-11-27T13:28:46.208Z,17.60
2018-11-27T13:31:18.873Z,17.20
2018-11-27T13:34:02.428Z,17.53
2018-11-27T13:36:34.623Z,17.23
2018-11-27T13:39:16.752Z,17.50
2018-11-27T13:41:49.068Z,17.10
2018-11-27T13:44:21.759Z,17.50
2018-11-27T13:46:53.157Z,17.77
2018-11-27T13:49:23.876Z,17.43
2018-11-27T13:51:56.021Z,15.67
2018-11-27T13:54:28.541Z,16.87
2018-11-27T13:56:59.804Z,15.60
2018-11-27T13:59:30.484Z,16.60
2018-11-27T14:02:01.153Z,15.13
2018-11-27T14:04:31.838Z,16.37
2018-11-27T14:07:02.550Z,15.77
2018-11-27T14:09:33.759Z,15.70
2018-11-27T14:12:05.774Z,15.50
2018-11-27T14:14:37.504Z,16.10
2018-11-27T14:17:11.704Z,16.40
2018-11-27T14:19:43.986Z,16.27
2018-11-27T14:22:15.301Z,15.50
2018-11-27T14:24:47.125Z,14.73
2018-11-27T14:27:17.791Z,15.07
2018-11-27T14:29:48.505Z,14.27
2018-11-27T14:32:19.197Z,16.37
2018-11-27T14:34:52.384Z,15.67
2018-11-27T14:37:23.836Z,16.27
2018-11-27T14:39:56.420Z,16.47
2018-11-27T14:42:29.144Z,15.87
2018-11-27T14:45:00.584Z,17.00
2018-11-27T14:47:31.464Z,15.43
2018-11-27T14:50:04.327Z,16.33
2018-11-27T14:52:36.529Z,17.63
2018-11-27T14:55:11.260Z,16.93
2018-11-27T14:57:43.826Z,15.97
2018-11-27T15:00:16.433Z,16.20
2018-11-27T15:02:49.104Z,17.47
2018-11-27T15:05:24.280Z,16.07
2018-11-27T15:07:56.302Z,17.03
2018-11-27T15:10:28.485Z,16.73
2018-11-27T15:12:59.304Z,16.43
2018-11-27T15:15:31.677Z,17.37
2018-11-27T15:18:03.501Z,16.60
2018-11-27T15:20:36.111Z,16.67
2018-11-27T15:23:07.921Z,16.03
2018-11-27T15:25:40.485Z,16.87
2018-11-27T15:28:12.524Z,15.83
2018-11-27T15:30:44.274Z,16.63
2018-11-27T15:33:18.715Z,15.47
2018-11-27T15:35:46.560Z,16.37
2018-11-27T15:38:18.011Z,16.67
2018-11-27T15:40:48.826Z,16.60
2018-11-27T15:43:21.348Z,16.03
2018-11-27T15:45:53.596Z,18.33
2018-11-27T15:48:25.412Z,16.03
2018-11-27T15:50:56.583Z,17.93
2018-11-27T15:53:29.094Z,16.90
2018-11-27T15:56:01.211Z,15.10
2018-11-27T15:58:31.840Z,14.80
2018-11-27T16:01:02.434Z,15.00
2018-11-27T16:03:33.650Z,14.17
2018-11-27T16:06:06.021Z,15.23
2018-11-27T16:08:37.367Z,14.60
2018-11-27T16:11:07.997Z,14.87
2018-11-27T16:13:38.658Z,15.20
2018-11-27T16:16:09.640Z,14.07
2018-11-27T16:18:40.494Z,13.90
2018-11-27T16:21:12.027Z,14.90
2018-11-27T16:23:43.393Z,16.13
2018-11-27T16:26:14.769Z,15.40
2018-11-27T16:28:45.842Z,14.40
2018-11-27T16:31:16.777Z,14.20
2018-11-27T16:33:47.740Z,15.50
2018-11-27T16:36:18.613Z,14.73
2018-11-27T16:38:49.485Z,14.33
2018-11-27T16:41:20.199Z,14.97
2018-11-27T16:43:50.884Z,14.17
2018-11-27T16:46:37.095Z,13.83
2018-11-27T16:49:07.865Z,14.80
2018-11-27T16:51:38.589Z,14.33
2018-11-27T16:54:27.377Z,14.13
2018-11-27T16:56:59.469Z,13.23
2018-11-27T16:59:35.568Z,14.57
2018-11-27T17:02:06.421Z,14.53
2018-11-27T17:04:37.076Z,13.93
2018-11-27T17:07:07.977Z,13.97
2018-11-27T17:09:38.761Z,14.63
2018-11-27T17:12:09.528Z,14.70
2018-11-27T17:14:57.630Z,15.03
2018-11-27T17:17:28.430Z,14.43
2018-11-27T17:19:59.249Z,13.93
2018-11-27T17:22:29.962Z,14.33
2018-11-27T17:25:00.703Z,14.33
2018-11-27T17:27:31.335Z,14.97
2018-11-27T17:30:12.440Z,15.03
2018-11-27T17:32:43.171Z,15.57
2018-11-27T17:35:32.907Z,14.23
2018-11-27T17:38:03.611Z,13.73
2018-11-27T17:40:34.280Z,14.43
2018-11-27T17:43:05.254Z,14.80
2018-11-27T17:45:35.943Z,14.73
2018-11-27T17:48:07.270Z,14.23
2018-11-27T17:50:48.247Z,13.53
2018-11-27T17:53:19.048Z,14.43
2018-11-27T17:55:49.740Z,14.37
2018-11-27T17:58:22.813Z,13.80
2018-11-27T18:00:51.430Z,14.67
2018-11-27T18:03:25.138Z,14.63
2018-11-27T18:05:55.860Z,13.63
2018-11-27T18:08:26.566Z,14.73
2018-11-27T18:10:57.406Z,13.23
2018-11-27T18:13:33.548Z,11.87
2018-11-27T18:16:04.263Z,14.03
2018-11-27T18:18:34.839Z,14.50
2018-11-27T18:21:05.830Z,14.23
2018-11-27T18:23:36.524Z,14.00
2018-11-27T18:26:07.788Z,14.03
2018-11-27T18:28:38.560Z,13.37
2018-11-27T18:31:09.326Z,15.10
2018-11-27T18:33:39.944Z,14.57
2018-11-27T18:36:15.912Z,13.80
2018-11-27T18:39:02.088Z,14.23
2018-11-27T18:41:32.682Z,13.83
2018-11-27T18:44:05.862Z,14.07
2018-11-27T18:46:36.441Z,14.33
2018-11-27T18:49:07.057Z,15.03
2018-11-27T18:51:37.625Z,14.17
2018-11-27T18:54:14.296Z,14.93
2018-11-27T18:56:48.896Z,14.30
2018-11-27T18:59:19.685Z,14.03
2018-11-27T19:01:53.570Z,15.63
2018-11-27T19:04:25.173Z,13.93
2018-11-27T19:07:01.870Z,14.03
2018-11-27T19:09:32.709Z,14.60
2018-11-27T19:12:04.284Z,15.03
2018-11-27T19:14:34.911Z,17.17
2018-11-27T19:17:05.685Z,15.53
2018-11-27T19:19:36.435Z,15.43
2018-11-27T19:22:11.857Z,15.30
2018-11-27T19:24:43.069Z,16.83
2018-11-27T19:27:14.020Z,15.63
2018-11-27T19:29:45.231Z,15.57
2018-11-27T19:32:15.908Z,16.43
2018-11-27T19:34:47.198Z,16.67
2018-11-27T19:37:17.903Z,16.17
2018-11-27T19:39:48.565Z,17.03
2018-11-27T19:42:19.158Z,17.27
2018-11-27T19:44:49.946Z,16.77
2018-11-27T19:47:21.161Z,16.57
2018-11-27T19:49:51.891Z,16.60
2018-11-27T19:52:23.156Z,16.90
2018-11-27T19:54:53.734Z,16.70
2018-11-27T19:57:24.334Z,16.87
2018-11-27T19:59:54.990Z,16.73
2018-11-27T20:02:25.578Z,17.13
2018-11-27T20:04:56.267Z,16.57
2018-11-27T20:07:26.935Z,16.20
2018-11-27T20:09:57.557Z,16.43
2018-11-27T20:12:28.270Z,16.77
2018-11-27T20:14:58.981Z,16.23
2018-11-27T20:17:29.680Z,16.23
2018-11-27T20:20:00.371Z,15.87
2018-11-27T20:22:31.103Z,15.57
2018-11-27T20:25:01.771Z,16.90
2018-11-27T20:27:32.507Z,15.97
2018-11-27T20:30:03.157Z,16.67
2018-11-27T20:32:34.033Z,16.20
2018-11-27T20:35:04.849Z,15.70
2018-11-27T20:37:35.440Z,17.00
2018-11-27T20:40:13.556Z,15.67
2018-11-27T20:42:44.233Z,16.00
2018-11-27T20:45:19.539Z,16.57
2018-11-27T20:47:50.161Z,14.23
2018-11-27T20:50:21.840Z,16.63
2018-11-27T20:52:52.523Z,16.30
2018-11-27T20:55:23.253Z,16.73
2018-11-27T20:57:56.238Z,16.40
2018-11-27T21:00:29.584Z,16.87
2018-11-27T21:03:01.301Z,16.30
2018-11-27T21:05:31.927Z,16.53
2018-11-27T21:08:02.624Z,16.30
2018-11-27T21:10:33.216Z,17.30
2018-11-27T21:13:03.772Z,16.77
2018-11-27T21:15:34.399Z,17.50
2018-11-27T21:18:05.124Z,17.60
2018-11-27T21:20:35.965Z,16.43
2018-11-27T21:23:06.748Z,17.57
2018-11-27T21:25:37.365Z,18.00
2018-11-27T21:28:17.791Z,16.37
2018-11-27T21:30:50.359Z,16.40
2018-11-27T21:33:21.098Z,17.07
2018-11-27T21:35:51.618Z,16.50
2018-11-27T21:38:22.240Z,16.60
2018-11-27T21:40:52.986Z,17.67
2018-11-27T21:43:23.548Z,17.77
2018-11-27T21:45:54.147Z,17.60
2018-11-27T21:48:24.796Z,17.37
2018-11-27T21:50:59.440Z,17.83
2018-11-27T21:53:30.288Z,17.73
2018-11-27T21:56:00.945Z,18.07
2018-11-27T21:58:31.645Z,19.03
2018-11-27T22:01:02.366Z,19.47
2018-11-27T22:03:38.469Z,17.07
2018-11-27T22:06:09.129Z,18.53
2018-11-27T22:08:47.402Z,18.37
2018-11-27T22:11:18.380Z,18.30
2018-11-27T22:13:49.091Z,18.77
2018-11-27T22:16:19.804Z,17.00
2018-11-27T22:18:50.666Z,18.57
2018-11-27T22:21:21.325Z,19.23
2018-11-27T22:23:51.957Z,18.93
2018-11-27T22:26:22.632Z,18.97
2018-11-27T22:28:53.292Z,17.53
2018-11-27T22:31:23.936Z,18.47
2018-11-27T22:33:54.478Z,17.67
2018-11-27T22:36:25.030Z,17.63
2018-11-27T22:38:55.655Z,18.20
2018-11-27T22:41:26.287Z,17.63
2018-11-27T22:43:56.925Z,16.53
2018-11-27T22:46:29.015Z,16.47
2018-11-27T22:48:59.613Z,17.03
2018-11-27T22:51:30.316Z,18.33
2018-11-27T22:54:00.966Z,17.07
2018-11-27T22:56:31.637Z,17.23
2018-11-27T22:59:02.237Z,18.07
2018-11-27T23:01:38.813Z,17.13
2018-11-27T23:04:09.796Z,16.50
2018-11-27T23:06:46.543Z,17.23
2018-11-27T23:09:17.107Z,17.93
2018-11-27T23:11:47.815Z,16.37
2018-11-27T23:14:18.461Z,17.40
2018-11-27T23:16:49.157Z,17.37
2018-11-27T23:19:19.723Z,17.13
2018-11-27T23:21:50.416Z,17.73
2018-11-27T23:24:21.077Z,17.37
2018-11-27T23:26:51.797Z,18.43
2018-11-27T23:29:22.439Z,18.30
2018-11-27T23:31:52.997Z,17.53
2018-11-27T23:34:23.670Z,17.70
2018-11-27T23:36:54.452Z,17.27
2018-11-27T23:39:32.607Z,17.53
2018-11-27T23:42:03.318Z,17.57
2018-11-27T23:44:33.967Z,18.00
2018-11-27T23:47:04.633Z,18.63
2018-11-27T23:49:35.295Z,18.00
2018-11-27T23:52:06.109Z,17.03
2018-11-27T23:54:36.792Z,17.17
2018-11-27T23:57:08.324Z,18.03
2018-11-27T23:59:38.850Z,16.87
